Main page
METAR-TAF:

METAR-TAF

Airports :

Allama Iqbal International Airport

Lahore, Pakistan

latitude: 31-31N, longitude: 074-24E, elevation: 216 m

Current weather observation

The report was made 35 minutes ago, at 19:25 UTC
Calm wind
Temperature 21°C
Humidity 60%
Pressure 1016 hPa
Visibility: 4000 m
smoke

METAR: OPLA 281925Z 00000KT 4000 FU NSC 21/13 Q1016 NOSIG RMK QFE988 A30.02

Time: 01:00 (20:00 UTC)

Forecast

The report was made 4 hours and 15 minutes ago, at 15:45 UTC
Forecast valid from 28 at 18 UTC to 29 at 24 UTC
Wind 3 kt from the West
Visibility: 4000 m
smoke
Temporary
from 29 at 01 UTC to 29 at 04 UTC
Visibility: 2000 m
mist
From 29 at 0600 UTC
Wind 8 kt from the Northwest
Visibility: 5000 m
haze
From 29 at 1500 UTC
Wind 2 kt from variable directions
Visibility: 4000 m
smoke

TAF: OPLA 281545Z 2818/2924 28003KT 4000 FU NSC TX31/2910Z TN16/2901Z TEMPO 2901/2904 2000 BR FM290600 31008KT 5000 HZ NSC FM291500 VRB02KT 4000 FU NSC

Weather observations and forecasts of more than 4000 airports (METAR and TAF reports).

The available stations are represented by yellow and red dots on the map.

Hover mouse over dot to see the name of the station.

Then click to see weather observations and forecasts.

To change the map : click on the green buttons with a black cross to zoom in, on the green button with a dash to zoom out, or on the green arrows for adjacent maps.


METAR-TAF: